Time;durP1;ratioP1;P1;durP2;ratioP2;P2;SDS_P1;SDS_P2;PMS_P1;PMS_P2;Temp;Humidity;BMP_temperature;BMP_pressure;BME280_temperature;BME280_humidity;BME280_pressure;Samples;Min_cycle;Max_cycle;Signal;HPM_P1;HPM_P2
2023/06/06 00:01:49;;;;;;;3.47;3.17;;;14.60;99.90;;;;;;5071781;28;20544;-68
2023/06/06 00:04:17;;;;;;;4.03;3.63;;;14.50;99.80;;;;;;5071239;28;20957;-69
2023/06/06 00:06:47;;;;;;;3.67;3.40;;;14.50;99.80;;;;;;5071661;28;20806;-69
2023/06/06 00:09:15;;;;;;;4.43;4.03;;;14.40;99.90;;;;;;5071409;28;20482;-68
2023/06/06 00:11:46;;;;;;;4.80;3.40;;;14.40;99.90;;;;;;5071500;28;20451;-68
2023/06/06 00:14:18;;;;;;;5.10;3.40;;;14.30;99.90;;;;;;5071384;28;20435;-68
2023/06/06 00:16:49;;;;;;;6.00;4.23;;;14.20;99.90;;;;;;5071540;28;20501;-68
2023/06/06 00:19:20;;;;;;;4.83;3.57;;;14.20;99.90;;;;;;5071329;28;20458;-68
2023/06/06 00:21:50;;;;;;;3.93;3.30;;;14.10;99.90;;;;;;5071137;28;20444;-68
2023/06/06 00:24:19;;;;;;;4.00;3.70;;;14.20;99.90;;;;;;5071175;28;20436;-68
2023/06/06 00:26:47;;;;;;;4.57;4.17;;;14.30;99.90;;;;;;5071137;28;20617;-68
2023/06/06 00:29:15;;;;;;;4.87;4.43;;;14.30;99.90;;;;;;5070921;28;20487;-67
2023/06/06 00:31:42;;;;;;;4.37;4.07;;;14.40;99.90;;;;;;5070971;28;20971;-67
2023/06/06 00:34:10;;;;;;;4.67;4.27;;;14.40;99.90;;;;;;5070752;28;20538;-68
2023/06/06 00:36:38;;;;;;;4.17;3.73;;;14.30;99.90;;;;;;5070767;28;21020;-67
2023/06/06 00:39:08;;;;;;;7.20;3.97;;;14.40;99.80;;;;;;5071006;28;20574;-67
2023/06/06 00:41:36;;;;;;;4.83;4.40;;;14.20;99.90;;;;;;5071075;28;20444;-68
2023/06/06 00:44:03;;;;;;;3.90;3.60;;;14.00;99.90;;;;;;5070618;28;21206;-67
2023/06/06 00:46:31;;;;;;;5.60;4.70;;;14.00;99.90;;;;;;5070688;28;20496;-67
2023/06/06 00:49:00;;;;;;;4.73;4.33;;;13.90;99.90;;;;;;5070442;28;20486;-68
2023/06/06 00:51:28;;;;;;;4.23;3.93;;;13.80;99.90;;;;;;5070747;28;20529;-68
2023/06/06 00:53:59;;;;;;;4.93;4.43;;;13.80;99.90;;;;;;5070280;28;20457;-68
2023/06/06 00:56:29;;;;;;;4.93;4.50;;;13.70;99.90;;;;;;5070506;28;20989;-68
2023/06/06 00:58:58;;;;;;;6.40;4.50;;;13.50;99.90;;;;;;5070408;28;20463;-68
2023/06/06 01:01:28;;;;;;;5.00;4.60;;;13.60;99.90;;;;;;5070362;28;20542;-68
2023/06/06 01:04:00;;;;;;;5.00;4.50;;;13.60;99.90;;;;;;5070176;28;20435;-68
2023/06/06 01:06:33;;;;;;;5.90;5.00;;;13.60;99.90;;;;;;5070439;28;20759;-68
2023/06/06 01:09:04;;;;;;;5.40;4.90;;;13.60;99.90;;;;;;5070353;28;20510;-68
2023/06/06 01:11:44;;;;;;;6.93;4.97;;;13.60;99.90;;;;;;5070467;28;20801;-67
2023/06/06 01:14:19;;;;;;;4.97;4.57;;;13.50;99.90;;;;;;5069889;28;20458;-68
2023/06/06 01:16:52;;;;;;;5.03;4.60;;;13.50;99.90;;;;;;5070429;28;20629;-67
2023/06/06 01:19:27;;;;;;;4.73;4.20;;;13.50;99.90;;;;;;5070270;28;20455;-68
2023/06/06 01:21:57;;;;;;;4.87;4.47;;;13.50;99.90;;;;;;5069629;28;20894;-68
2023/06/06 01:24:27;;;;;;;4.70;4.30;;;13.50;99.90;;;;;;5069772;28;20445;-68
2023/06/06 01:26:55;;;;;;;5.53;5.00;;;13.60;99.90;;;;;;5070120;28;20435;-69
2023/06/06 01:29:23;;;;;;;5.50;5.00;;;13.50;99.90;;;;;;5069984;28;20485;-67
2023/06/06 01:32:01;;;;;;;7.23;5.43;;;13.40;99.90;;;;;;5070340;28;20447;-67
2023/06/06 01:34:34;;;;;;;6.60;6.10;;;13.30;99.90;;;;;;5069785;28;20478;-67
2023/06/06 01:37:12;;;;;;;5.20;4.70;;;13.20;99.90;;;;;;5070018;28;20431;-68
2023/06/06 01:39:44;;;;;;;5.43;4.83;;;13.10;99.90;;;;;;5070227;28;20454;-67
2023/06/06 01:42:13;;;;;;;5.30;4.80;;;13.00;99.90;;;;;;5070242;28;20484;-67
2023/06/06 01:44:43;;;;;;;5.47;4.87;;;13.00;99.90;;;;;;5069935;28;20439;-67
2023/06/06 01:47:12;;;;;;;5.90;5.30;;;13.00;99.90;;;;;;5070097;28;20449;-67
2023/06/06 01:49:43;;;;;;;5.73;5.13;;;13.10;99.90;;;;;;5070059;28;20482;-67
2023/06/06 01:52:13;;;;;;;5.10;4.60;;;13.10;99.90;;;;;;5070064;28;20488;-68
2023/06/06 01:54:41;;;;;;;6.47;5.33;;;13.10;99.90;;;;;;5069552;28;20868;-67
2023/06/06 01:57:09;;;;;;;5.90;5.07;;;13.10;99.90;;;;;;5069922;28;20530;-67
2023/06/06 01:59:38;;;;;;;5.43;4.93;;;13.10;99.90;;;;;;5069800;28;20455;-67
2023/06/06 02:02:07;;;;;;;5.80;5.20;;;13.20;99.90;;;;;;5069102;28;20432;-67
2023/06/06 02:04:35;;;;;;;5.97;5.40;;;13.10;99.90;;;;;;5069068;28;20442;-68
2023/06/06 02:07:03;;;;;;;5.50;5.00;;;13.00;99.90;;;;;;5069755;28;20445;-67
2023/06/06 02:09:32;;;;;;;5.30;4.77;;;13.00;99.90;;;;;;5069419;28;21172;-67
2023/06/06 02:12:00;;;;;;;6.13;5.63;;;12.90;99.90;;;;;;5069607;28;20813;-66
2023/06/06 02:14:28;;;;;;;6.10;5.50;;;12.70;99.90;;;;;;5069297;28;20482;-67
2023/06/06 02:16:57;;;;;;;6.80;6.20;;;12.50;99.90;;;;;;5069696;28;20454;-68
2023/06/06 02:19:26;;;;;;;6.70;6.13;;;12.50;99.90;;;;;;5069384;28;20866;-67
2023/06/06 02:21:54;;;;;;;7.90;6.57;;;12.50;99.90;;;;;;5069583;28;20449;-68
2023/06/06 02:24:24;;;;;;;6.80;6.20;;;12.50;99.90;;;;;;5069294;28;20911;-67
2023/06/06 02:26:53;;;;;;;6.10;5.60;;;12.60;99.90;;;;;;5069359;28;20450;-67
2023/06/06 02:29:23;;;;;;;6.60;6.00;;;12.50;99.90;;;;;;5069442;28;20476;-67
2023/06/06 02:31:51;;;;;;;6.20;5.60;;;12.50;99.90;;;;;;5070519;28;21032;-67
2023/06/06 02:34:19;;;;;;;6.30;5.63;;;12.40;99.90;;;;;;5073210;28;20474;-68
2023/06/06 02:36:48;;;;;;;6.23;5.70;;;12.40;99.90;;;;;;5073384;28;20468;-67
2023/06/06 02:39:16;;;;;;;6.83;5.80;;;12.40;99.90;;;;;;5073083;28;20454;-67
2023/06/06 02:41:44;;;;;;;6.10;5.60;;;12.30;99.90;;;;;;5073268;28;20442;-67
2023/06/06 02:44:13;;;;;;;6.70;6.10;;;12.30;99.90;;;;;;5072972;28;21103;-67
2023/06/06 02:46:41;;;;;;;6.40;5.70;;;12.20;99.90;;;;;;5073130;28;20443;-67
2023/06/06 02:49:09;;;;;;;6.37;5.77;;;12.10;99.90;;;;;;5073014;28;20586;-68
2023/06/06 02:51:37;;;;;;;6.57;5.97;;;12.10;99.90;;;;;;5072925;28;20495;-67
2023/06/06 02:54:06;;;;;;;8.27;6.27;;;12.10;99.90;;;;;;5072395;28;20604;-67
2023/06/06 02:56:33;;;;;;;5.40;4.90;;;12.00;99.90;;;;;;5072993;28;20442;-67
2023/06/06 02:59:02;;;;;;;6.20;5.70;;;11.90;99.90;;;;;;5073092;28;20535;-67
2023/06/06 03:01:31;;;;;;;7.07;6.43;;;12.00;99.90;;;;;;5073011;28;20442;-68
2023/06/06 03:03:59;;;;;;;6.27;5.70;;;12.00;99.90;;;;;;5072422;28;20454;-67
2023/06/06 03:06:28;;;;;;;8.70;5.83;;;12.10;99.90;;;;;;5072562;28;20463;-67
2023/06/06 03:08:57;;;;;;;6.67;6.07;;;12.00;99.90;;;;;;5072558;28;20483;-68
2023/06/06 03:11:26;;;;;;;6.20;5.70;;;12.00;99.90;;;;;;5072740;28;20521;-68
2023/06/06 03:13:54;;;;;;;6.60;6.00;;;11.90;99.90;;;;;;5072389;28;20497;-67
2023/06/06 03:16:26;;;;;;;7.30;6.60;;;12.00;99.90;;;;;;5072597;28;20804;-67
2023/06/06 03:18:55;;;;;;;6.60;5.90;;;12.10;99.90;;;;;;5072348;28;20476;-66
2023/06/06 03:21:24;;;;;;;6.13;5.40;;;12.10;99.90;;;;;;5072722;28;20431;-67
2023/06/06 03:23:51;;;;;;;6.87;6.03;;;12.10;99.90;;;;;;5072274;28;20507;-67
2023/06/06 03:26:20;;;;;;;8.23;6.30;;;12.20;99.90;;;;;;5072364;28;20529;-68
2023/06/06 03:28:48;;;;;;;7.50;6.20;;;12.10;99.90;;;;;;5072244;28;20500;-68
2023/06/06 03:31:16;;;;;;;6.87;6.20;;;11.90;99.90;;;;;;5072367;28;20517;-68
2023/06/06 03:33:44;;;;;;;7.83;6.50;;;12.00;99.90;;;;;;5073003;28;20507;-68
2023/06/06 03:36:14;;;;;;;10.67;7.97;;;11.90;99.90;;;;;;5072524;28;20530;-68
2023/06/06 03:38:41;;;;;;;8.67;6.37;;;12.00;99.90;;;;;;5072397;28;20446;-68
2023/06/06 03:41:10;;;;;;;8.17;7.33;;;11.90;99.90;;;;;;5072207;28;21018;-68
2023/06/06 03:43:38;;;;;;;7.60;6.80;;;12.00;99.90;;;;;;5071278;28;20470;-68
2023/06/06 03:46:06;;;;;;;8.43;6.73;;;12.00;99.90;;;;;;5072102;28;20443;-68
2023/06/06 03:48:34;;;;;;;9.17;6.60;;;11.90;99.90;;;;;;5072269;28;20499;-67
2023/06/06 03:51:02;;;;;;;11.90;6.40;;;11.90;99.90;;;;;;5072196;28;20569;-68
2023/06/06 03:53:31;;;;;;;8.80;8.00;;;11.90;99.90;;;;;;5071719;28;20542;-68
2023/06/06 03:55:59;;;;;;;13.73;7.40;;;12.10;99.90;;;;;;5072191;28;20883;-67
2023/06/06 03:58:29;;;;;;;7.57;6.40;;;12.10;99.90;;;;;;5071908;28;20951;-68
2023/06/06 04:00:58;;;;;;;7.57;6.87;;;12.20;99.90;;;;;;5072123;28;20431;-68
2023/06/06 04:03:26;;;;;;;8.67;6.40;;;12.20;99.90;;;;;;5071659;28;20488;-68
2023/06/06 04:05:55;;;;;;;7.00;6.30;;;12.10;99.90;;;;;;5072540;28;20442;-68
2023/06/06 04:08:23;;;;;;;8.00;7.17;;;12.20;99.90;;;;;;5072663;28;20439;-68
2023/06/06 04:10:52;;;;;;;7.47;6.70;;;12.10;99.90;;;;;;5072051;28;20527;-67
2023/06/06 04:13:20;;;;;;;7.43;6.23;;;12.20;99.90;;;;;;5072000;28;20440;-67
2023/06/06 04:15:49;;;;;;;8.50;7.70;;;12.20;99.90;;;;;;5072030;28;20499;-66
2023/06/06 04:18:17;;;;;;;8.00;6.97;;;12.30;99.90;;;;;;5072142;28;20446;-67
2023/06/06 04:20:45;;;;;;;6.20;5.70;;;12.40;99.90;;;;;;5071620;28;20516;-68
2023/06/06 04:23:13;;;;;;;7.97;7.17;;;12.40;99.90;;;;;;5071852;28;20438;-67
2023/06/06 04:25:41;;;;;;;7.87;7.10;;;12.50;99.90;;;;;;5071787;28;20442;-67
2023/06/06 04:28:11;;;;;;;7.40;6.70;;;12.50;99.90;;;;;;5071967;28;21211;-66
2023/06/06 04:30:40;;;;;;;8.83;6.77;;;12.60;99.90;;;;;;5071830;28;20475;-66
2023/06/06 04:33:08;;;;;;;12.37;7.77;;;12.60;99.90;;;;;;5071312;28;20955;-67
2023/06/06 04:35:42;;;;;;;7.80;7.10;;;12.70;99.90;;;;;;5072062;28;20536;-67
2023/06/06 04:38:12;;;;;;;7.90;7.10;;;12.70;99.90;;;;;;5071578;28;20442;-67
2023/06/06 04:40:40;;;;;;;7.20;6.50;;;12.70;99.90;;;;;;5071466;28;20466;-67
2023/06/06 04:43:32;;;;;;;8.30;7.50;;;12.80;99.90;;;;;;5070897;28;20869;-68
2023/06/06 04:46:02;;;;;;;7.80;7.17;;;12.90;99.90;;;;;;5071160;28;20452;-68
2023/06/06 04:48:31;;;;;;;8.03;7.10;;;12.90;99.90;;;;;;5070754;28;20474;-69
2023/06/06 04:50:59;;;;;;;7.10;6.40;;;13.10;99.90;;;;;;5070625;28;20518;-68
2023/06/06 04:53:27;;;;;;;7.47;6.77;;;13.20;99.90;;;;;;5070641;28;20440;-69
2023/06/06 04:55:57;;;;;;;8.23;6.77;;;13.30;99.90;;;;;;5070020;28;20476;-69
2023/06/06 04:58:28;;;;;;;11.50;7.27;;;13.30;99.90;;;;;;5070777;28;20534;-69
2023/06/06 05:00:57;;;;;;;7.53;6.80;;;13.30;99.90;;;;;;5070766;28;20503;-68
2023/06/06 05:03:27;;;;;;;7.10;6.40;;;13.40;99.90;;;;;;5071002;28;20445;-69
2023/06/06 05:05:56;;;;;;;6.80;6.10;;;13.60;99.90;;;;;;5070920;28;20435;-68
2023/06/06 05:08:24;;;;;;;6.87;6.27;;;13.70;99.90;;;;;;5070384;28;21021;-67
2023/06/06 05:10:53;;;;;;;8.33;7.57;;;13.70;99.90;;;;;;5070196;28;20479;-67
2023/06/06 05:13:21;;;;;;;8.00;6.40;;;13.80;99.90;;;;;;5069989;28;20484;-66
2023/06/06 05:15:49;;;;;;;8.17;7.37;;;13.90;99.90;;;;;;5070239;28;20439;-67
2023/06/06 05:18:20;;;;;;;7.80;7.10;;;13.90;99.90;;;;;;5070371;28;20469;-67
2023/06/06 05:20:48;;;;;;;8.67;6.50;;;14.00;99.90;;;;;;5070350;28;20859;-67
2023/06/06 05:23:16;;;;;;;8.03;7.17;;;14.00;99.90;;;;;;5069942;28;20450;-67
2023/06/06 05:25:44;;;;;;;7.60;6.90;;;14.00;99.90;;;;;;5070254;28;20446;-67
2023/06/06 05:28:12;;;;;;;7.93;6.97;;;14.10;99.90;;;;;;5070003;28;20819;-67
2023/06/06 05:30:40;;;;;;;7.30;6.60;;;14.10;99.90;;;;;;5070209;28;20839;-68
2023/06/06 05:33:09;;;;;;;8.03;6.60;;;14.10;99.90;;;;;;5069972;28;20523;-67
2023/06/06 05:35:39;;;;;;;6.87;5.77;;;14.10;99.90;;;;;;5070200;28;20448;-68
2023/06/06 05:38:07;;;;;;;11.30;7.00;;;14.30;99.90;;;;;;5069924;28;21143;-67
2023/06/06 05:40:36;;;;;;;7.23;6.50;;;14.50;99.90;;;;;;5069863;28;20503;-67
2023/06/06 05:43:04;;;;;;;8.63;7.20;;;14.80;99.90;;;;;;5069876;28;20479;-68
2023/06/06 05:45:32;;;;;;;6.80;5.90;;;15.00;99.90;;;;;;5070035;28;20812;-68
2023/06/06 05:48:00;;;;;;;6.70;6.10;;;15.10;99.90;;;;;;5070052;28;20443;-68
2023/06/06 05:50:28;;;;;;;6.70;6.10;;;15.30;99.90;;;;;;5070047;28;20555;-68
2023/06/06 05:52:57;;;;;;;6.77;6.10;;;15.50;99.90;;;;;;5069784;28;20435;-68
2023/06/06 05:55:29;;;;;;;6.17;5.10;;;15.60;98.60;;;;;;5069959;28;20449;-68
2023/06/06 05:57:58;;;;;;;5.97;5.27;;;15.80;98.90;;;;;;5069783;28;21069;-68
2023/06/06 06:00:27;;;;;;;5.90;5.40;;;15.90;98.80;;;;;;5070054;28;20867;-68
2023/06/06 06:02:57;;;;;;;6.57;5.83;;;15.80;96.60;;;;;;5069782;28;20488;-67
2023/06/06 06:05:28;;;;;;;6.80;6.20;;;16.00;96.60;;;;;;5069912;28;20477;-67
2023/06/06 06:07:59;;;;;;;6.30;5.60;;;16.20;96.40;;;;;;5069481;28;20504;-67
2023/06/06 06:10:27;;;;;;;5.77;5.10;;;16.50;95.80;;;;;;5069588;28;20984;-67
2023/06/06 06:12:55;;;;;;;6.03;5.00;;;16.60;94.20;;;;;;5069484;28;20478;-68
2023/06/06 06:15:23;;;;;;;5.10;4.70;;;16.70;92.30;;;;;;5069593;28;20500;-67
2023/06/06 06:17:51;;;;;;;6.17;4.90;;;16.80;92.40;;;;;;5069990;28;20455;-68
2023/06/06 06:20:20;;;;;;;7.03;5.80;;;16.80;91.80;;;;;;5069439;28;20493;-68
2023/06/06 06:22:49;;;;;;;6.40;5.07;;;17.00;92.30;;;;;;5069133;28;20471;-67
2023/06/06 06:25:19;;;;;;;6.50;5.90;;;17.20;92.00;;;;;;5069776;28;20534;-68
2023/06/06 06:27:48;;;;;;;8.30;5.80;;;17.20;92.20;;;;;;5069750;28;20956;-68
2023/06/06 06:30:16;;;;;;;5.03;4.63;;;17.20;91.50;;;;;;5069790;28;20467;-68
2023/06/06 06:32:45;;;;;;;5.67;5.17;;;17.30;90.60;;;;;;5069497;28;20993;-68
2023/06/06 06:35:13;;;;;;;5.47;5.07;;;17.30;91.10;;;;;;5069519;28;20533;-68
2023/06/06 06:37:41;;;;;;;4.93;4.53;;;17.50;91.60;;;;;;5069456;28;20477;-69
2023/06/06 06:40:10;;;;;;;4.90;4.50;;;17.60;89.50;;;;;;5069258;28;20463;-69
2023/06/06 06:42:41;;;;;;;5.37;4.83;;;17.60;90.70;;;;;;5068986;28;20431;-68
2023/06/06 06:45:12;;;;;;;5.60;4.60;;;17.70;90.50;;;;;;5069224;28;20941;-68
2023/06/06 06:47:41;;;;;;;4.97;4.57;;;17.80;88.60;;;;;;5069224;28;20497;-68
2023/06/06 06:50:11;;;;;;;5.47;4.90;;;18.00;86.30;;;;;;5069297;28;20554;-68
2023/06/06 06:52:39;;;;;;;4.60;4.23;;;18.10;87.00;;;;;;5068886;28;20474;-68
2023/06/06 06:55:09;;;;;;;5.40;4.90;;;18.10;88.50;;;;;;5069417;28;20525;-68
2023/06/06 06:57:39;;;;;;;7.00;5.77;;;18.20;87.20;;;;;;5069135;28;20443;-68
2023/06/06 07:00:12;;;;;;;6.70;6.10;;;18.30;86.40;;;;;;5069301;28;20597;-68
2023/06/06 07:02:42;;;;;;;5.17;4.77;;;18.40;84.50;;;;;;5068737;28;20427;-68
2023/06/06 07:05:11;;;;;;;6.17;5.03;;;18.50;81.80;;;;;;5069209;28;20908;-68
2023/06/06 07:07:46;;;;;;;5.33;4.83;;;18.50;84.10;;;;;;5069328;28;20813;-68
2023/06/06 07:10:15;;;;;;;6.20;5.33;;;18.60;81.10;;;;;;5068959;28;20545;-67
2023/06/06 07:12:47;;;;;;;6.13;5.53;;;18.60;80.00;;;;;;5068527;28;21004;-67
2023/06/06 07:15:16;;;;;;;6.53;5.50;;;18.60;82.90;;;;;;5069037;28;20530;-68
2023/06/06 07:17:49;;;;;;;6.67;5.97;;;18.60;81.20;;;;;;5069111;28;20446;-68
2023/06/06 07:20:18;;;;;;;5.83;5.33;;;18.60;80.20;;;;;;5072039;28;20461;-68
2023/06/06 07:22:46;;;;;;;6.37;5.80;;;18.70;82.60;;;;;;5072062;28;20489;-67
2023/06/06 07:25:15;;;;;;;7.00;5.60;;;18.80;83.10;;;;;;5072812;28;20867;-68
2023/06/06 07:27:43;;;;;;;6.73;4.73;;;19.00;83.80;;;;;;5072551;28;20830;-68
2023/06/06 07:30:14;;;;;;;5.43;4.90;;;19.20;79.20;;;;;;5072374;28;20532;-69
2023/06/06 07:32:46;;;;;;;8.50;5.47;;;19.30;79.50;;;;;;5071966;28;20477;-68
2023/06/06 07:35:15;;;;;;;5.90;5.40;;;19.50;79.30;;;;;;5072230;28;20434;-67
2023/06/06 07:37:44;;;;;;;5.90;5.30;;;19.50;76.50;;;;;;5072371;28;20443;-67
2023/06/06 07:40:12;;;;;;;6.00;5.40;;;19.50;77.00;;;;;;5072377;28;20512;-68
2023/06/06 07:42:41;;;;;;;4.90;4.50;;;19.60;77.90;;;;;;5071892;28;20431;-68
2023/06/06 07:45:10;;;;;;;5.20;4.70;;;19.60;75.60;;;;;;5072229;28;20486;-68
2023/06/06 07:47:39;;;;;;;5.63;5.13;;;19.80;74.80;;;;;;5071786;28;20449;-68
2023/06/06 07:50:10;;;;;;;6.37;4.70;;;19.80;71.60;;;;;;5071816;28;20466;-68
2023/06/06 07:52:43;;;;;;;4.73;4.30;;;19.90;73.80;;;;;;5071447;28;21042;-70
2023/06/06 07:55:12;;;;;;;6.27;5.20;;;20.10;75.00;;;;;;5071967;28;20546;-68
2023/06/06 07:57:40;;;;;;;5.60;5.10;;;20.30;71.20;;;;;;5072144;28;20428;-68
2023/06/06 08:00:10;;;;;;;5.20;4.50;;;20.50;70.80;;;;;;5071729;28;20467;-68
2023/06/06 08:02:39;;;;;;;4.43;4.07;;;20.40;70.80;;;;;;5071430;28;21291;-67
2023/06/06 08:05:10;;;;;;;5.13;4.67;;;20.20;68.10;;;;;;5071674;28;20442;-68
2023/06/06 08:07:39;;;;;;;5.10;4.70;;;20.00;70.70;;;;;;5071699;28;20443;-68
2023/06/06 08:10:08;;;;;;;6.90;4.00;;;20.00;68.80;;;;;;5071495;28;20491;-67
2023/06/06 08:12:36;;;;;;;5.43;4.00;;;20.10;68.60;;;;;;5071399;28;21025;-68
2023/06/06 08:15:06;;;;;;;4.47;4.10;;;20.30;69.10;;;;;;5071780;28;20462;-68
2023/06/06 08:17:34;;;;;;;5.23;4.67;;;20.40;68.70;;;;;;5071958;28;20436;-68
2023/06/06 08:20:03;;;;;;;4.40;4.00;;;20.60;69.40;;;;;;5071211;28;20459;-68
2023/06/06 08:22:33;;;;;;;5.23;4.77;;;20.90;68.10;;;;;;5071388;28;20518;-68
2023/06/06 08:25:05;;;;;;;5.83;3.77;;;21.10;67.90;;;;;;5071395;28;20442;-68
2023/06/06 08:27:33;;;;;;;4.33;3.93;;;21.40;63.20;;;;;;5071449;28;20544;-68
2023/06/06 08:30:01;;;;;;;5.53;4.37;;;21.50;59.50;;;;;;5071145;28;20463;-67
2023/06/06 08:32:30;;;;;;;4.20;3.80;;;21.50;60.20;;;;;;5070837;28;20992;-67
2023/06/06 08:34:58;;;;;;;4.17;3.67;;;21.80;59.50;;;;;;5071048;28;20539;-67
2023/06/06 08:37:26;;;;;;;8.60;4.10;;;21.90;58.80;;;;;;5071292;28;20488;-67
2023/06/06 08:39:56;;;;;;;4.03;3.63;;;22.00;56.90;;;;;;5070883;28;21044;-66
2023/06/06 08:42:25;;;;;;;3.80;3.50;;;22.10;57.00;;;;;;5071173;28;20521;-69
2023/06/06 08:44:53;;;;;;;4.20;3.80;;;22.20;56.70;;;;;;5071196;28;20439;-68
2023/06/06 08:47:24;;;;;;;4.13;3.73;;;22.30;58.20;;;;;;5071211;28;20530;-68
2023/06/06 08:49:53;;;;;;;4.30;4.00;;;22.50;56.10;;;;;;5070918;28;20485;-67
2023/06/06 08:52:22;;;;;;;5.60;4.03;;;22.50;54.50;;;;;;5070822;28;20438;-67
2023/06/06 08:54:50;;;;;;;4.23;3.83;;;22.80;56.90;;;;;;5070717;28;20500;-68
2023/06/06 08:57:20;;;;;;;5.13;4.60;;;22.90;55.40;;;;;;5070833;28;20522;-68
2023/06/06 08:59:48;;;;;;;3.97;3.67;;;23.00;55.10;;;;;;5070638;28;20555;-68
2023/06/06 09:02:17;;;;;;;4.73;4.33;;;23.20;51.90;;;;;;5070497;28;20482;-67
2023/06/06 09:04:48;;;;;;;4.20;3.80;;;23.10;50.30;;;;;;5070395;28;20435;-67
2023/06/06 09:07:16;;;;;;;4.10;3.80;;;23.00;52.40;;;;;;5070462;28;20515;-69
2023/06/06 09:09:47;;;;;;;4.40;4.00;;;23.20;54.10;;;;;;5070400;28;20455;-68
2023/06/06 09:12:15;;;;;;;6.13;4.53;;;23.30;52.00;;;;;;5070607;28;20441;-68
2023/06/06 09:14:45;;;;;;;4.63;4.23;;;23.30;53.20;;;;;;5070387;28;20477;-68
2023/06/06 09:17:17;;;;;;;4.83;4.33;;;23.60;55.10;;;;;;5070345;28;20820;-68
2023/06/06 09:19:46;;;;;;;4.70;4.40;;;23.90;53.10;;;;;;5070342;28;20550;-68
2023/06/06 09:22:14;;;;;;;5.10;4.60;;;23.70;52.50;;;;;;5070352;28;20439;-67
2023/06/06 09:24:45;;;;;;;4.10;3.80;;;23.80;53.30;;;;;;5070200;28;20822;-69
2023/06/06 09:27:29;;;;;;;4.70;4.10;;;24.00;52.20;;;;;;5070468;28;20439;-68
2023/06/06 09:29:58;;;;;;;5.00;4.10;;;24.20;52.30;;;;;;5070185;28;20501;-68
2023/06/06 09:32:27;;;;;;;3.93;3.63;;;24.40;51.40;;;;;;5069964;28;20443;-68
2023/06/06 09:35:05;;;;;;;4.97;4.43;;;24.40;50.10;;;;;;5070323;28;20474;-68
2023/06/06 09:37:34;;;;;;;4.90;4.50;;;24.40;49.90;;;;;;5070074;28;20450;-68
2023/06/06 09:40:12;;;;;;;4.93;4.53;;;24.40;53.00;;;;;;5070115;28;20462;-68
2023/06/06 09:42:42;;;;;;;5.23;4.17;;;24.60;50.30;;;;;;5069057;28;20563;-69
2023/06/06 09:45:16;;;;;;;4.73;4.20;;;24.70;51.80;;;;;;5070227;28;20457;-69
2023/06/06 09:47:46;;;;;;;4.33;3.93;;;25.00;52.20;;;;;;5070173;28;20493;-68
2023/06/06 09:50:18;;;;;;;5.10;4.70;;;25.10;49.30;;;;;;5069890;28;20892;-69
2023/06/06 09:52:49;;;;;;;4.83;4.43;;;25.40;50.40;;;;;;5069310;28;20439;-69
2023/06/06 09:55:18;;;;;;;4.87;4.37;;;25.60;50.20;;;;;;5069870;28;20936;-68
2023/06/06 09:57:49;;;;;;;5.07;4.57;;;25.80;46.70;;;;;;5069897;28;20443;-69
2023/06/06 10:00:20;;;;;;;4.67;4.27;;;25.80;47.30;;;;;;5069960;28;20822;-68
2023/06/06 10:02:48;;;;;;;4.60;4.20;;;25.80;45.80;;;;;;5069635;28;21221;-69
2023/06/06 10:05:17;;;;;;;4.33;3.93;;;26.00;45.20;;;;;;5069900;28;20433;-68
2023/06/06 10:07:47;;;;;;;5.53;5.00;;;26.20;45.20;;;;;;5069901;28;20434;-69
2023/06/06 10:10:16;;;;;;;4.87;4.37;;;26.20;46.20;;;;;;5069902;28;20467;-69
2023/06/06 10:12:45;;;;;;;4.60;4.20;;;26.40;45.50;;;;;;5069420;28;20530;-69
2023/06/06 10:15:13;;;;;;;5.77;5.17;;;26.60;47.00;;;;;;5069771;28;20435;-68
2023/06/06 10:17:44;;;;;;;5.20;4.70;;;27.20;46.30;;;;;;5069592;28;20538;-69
2023/06/06 10:20:13;;;;;;;5.00;4.57;;;27.80;47.70;;;;;;5069787;28;20459;-68
2023/06/06 10:22:42;;;;;;;4.47;4.07;;;28.60;45.30;;;;;;5069698;28;20693;-68
2023/06/06 10:25:12;;;;;;;5.57;5.00;;;29.20;43.50;;;;;;5069490;28;20502;-68
2023/06/06 10:27:52;;;;;;;5.07;4.67;;;29.00;43.70;;;;;;5069441;28;20436;-68
2023/06/06 10:30:29;;;;;;;5.67;5.17;;;29.40;38.60;;;;;;5069233;28;20462;-69
2023/06/06 10:33:09;;;;;;;4.43;4.03;;;29.10;39.30;;;;;;5069207;28;20784;-67
2023/06/06 10:35:40;;;;;;;4.90;4.50;;;28.60;39.80;;;;;;5069418;28;20442;-68
2023/06/06 10:38:09;;;;;;;5.73;4.80;;;28.10;41.20;;;;;;5069422;28;20435;-69
2023/06/06 10:40:42;;;;;;;4.67;4.10;;;28.00;41.90;;;;;;5069109;28;20930;-68
2023/06/06 10:43:11;;;;;;;5.20;4.70;;;27.90;40.20;;;;;;5069236;28;20446;-69
2023/06/06 10:45:53;;;;;;;5.27;4.53;;;27.80;39.20;;;;;;5069455;28;20462;-68
2023/06/06 10:48:37;;;;;;;5.43;4.70;;;27.80;38.80;;;;;;5069483;28;20530;-67
2023/06/06 10:51:06;;;;;;;5.03;4.40;;;27.70;39.80;;;;;;5069278;28;20508;-68
2023/06/06 10:53:35;;;;;;;5.00;4.50;;;27.60;39.70;;;;;;5069724;28;20501;-67
2023/06/06 10:56:07;;;;;;;4.47;4.07;;;27.70;40.00;;;;;;5072981;28;21203;-68
2023/06/06 10:58:36;;;;;;;5.10;4.70;;;27.30;40.70;;;;;;5072963;28;20492;-67
2023/06/06 11:01:05;;;;;;;5.50;4.97;;;27.00;42.50;;;;;;5073034;28;20449;-67
2023/06/06 11:03:37;;;;;;;5.60;5.10;;;27.60;41.50;;;;;;5072707;28;20530;-67
2023/06/06 11:06:26;;;;;;;5.60;5.10;;;27.40;40.50;;;;;;5073102;28;20443;-67
2023/06/06 11:09:00;;;;;;;5.77;5.27;;;26.40;42.10;;;;;;5073315;28;20837;-67
2023/06/06 11:11:29;;;;;;;5.90;5.37;;;26.60;42.10;;;;;;5072878;28;21050;-68
2023/06/06 11:13:59;;;;;;;5.43;4.93;;;26.70;41.40;;;;;;5072631;28;20557;-67
2023/06/06 11:16:52;;;;;;;5.67;5.17;;;27.20;41.80;;;;;;5072941;28;20441;-68
2023/06/06 11:19:31;;;;;;;9.60;5.60;;;26.90;41.10;;;;;;5072733;28;20825;-67
2023/06/06 11:22:01;;;;;;;4.93;4.43;;;27.00;40.40;;;;;;5072842;28;20483;-67
2023/06/06 11:24:35;;;;;;;6.00;5.50;;;27.40;41.00;;;;;;5072394;28;21074;-68
2023/06/06 11:27:06;;;;;;;5.20;4.80;;;27.70;40.50;;;;;;5072832;28;20878;-68
2023/06/06 11:29:34;;;;;;;5.47;4.97;;;28.10;38.30;;;;;;5072727;28;21310;-68
2023/06/06 11:32:04;;;;;;;5.40;4.50;;;27.80;38.80;;;;;;5072768;28;20482;-68
2023/06/06 11:34:33;;;;;;;5.90;5.30;;;27.60;38.20;;;;;;5072673;28;20891;-69
2023/06/06 11:37:02;;;;;;;5.30;4.90;;;26.80;39.50;;;;;;5072799;28;20439;-67
2023/06/06 11:39:31;;;;;;;5.63;5.03;;;26.20;40.60;;;;;;5072886;28;20542;-68
2023/06/06 11:42:00;;;;;;;4.90;4.50;;;26.70;43.20;;;;;;5073053;28;20442;-67
2023/06/06 11:44:33;;;;;;;6.23;4.43;;;27.10;37.00;;;;;;5073113;28;20463;-67
2023/06/06 11:47:03;;;;;;;4.73;4.33;;;27.40;37.00;;;;;;5072645;28;20886;-68
2023/06/06 11:49:45;;;;;;;6.87;4.90;;;27.70;36.10;;;;;;5072597;28;20459;-67
2023/06/06 11:52:13;;;;;;;7.00;5.17;;;28.00;35.90;;;;;;5072472;28;20501;-67
2023/06/06 11:54:51;;;;;;;6.00;4.83;;;28.40;37.00;;;;;;5071887;28;20552;-68
2023/06/06 11:57:20;;;;;;;5.73;5.13;;;28.40;37.10;;;;;;5071959;28;20829;-67
2023/06/06 11:59:53;;;;;;;6.20;4.47;;;27.60;38.00;;;;;;5071639;28;20815;-67
2023/06/06 12:02:22;;;;;;;4.83;4.40;;;27.60;37.50;;;;;;5071979;28;20496;-68
2023/06/06 12:04:51;;;;;;;5.20;4.80;;;28.00;36.00;;;;;;5071299;28;20478;-67
2023/06/06 12:07:21;;;;;;;4.90;4.40;;;28.20;36.90;;;;;;5071775;28;20478;-67
2023/06/06 12:09:56;;;;;;;6.57;4.47;;;28.60;36.40;;;;;;5071502;28;20869;-67
2023/06/06 12:12:24;;;;;;;11.90;5.77;;;28.40;35.60;;;;;;5071315;28;20500;-69
2023/06/06 12:14:57;;;;;;;6.40;5.67;;;28.00;35.90;;;;;;5071541;28;20483;-68
2023/06/06 12:17:27;;;;;;;5.53;5.13;;;27.50;38.30;;;;;;5071922;28;20500;-68
2023/06/06 12:19:57;;;;;;;6.00;5.10;;;26.60;39.20;;;;;;5071526;28;20557;-68
2023/06/06 12:22:29;;;;;;;5.00;4.47;;;26.50;39.70;;;;;;5071195;28;20497;-68
2023/06/06 12:24:57;;;;;;;7.17;5.30;;;27.10;39.20;;;;;;5071186;28;20821;-68
2023/06/06 12:27:27;;;;;;;5.40;4.90;;;27.50;38.60;;;;;;5071578;28;20442;-68
2023/06/06 12:29:55;;;;;;;6.00;4.77;;;26.80;38.60;;;;;;5071393;28;20463;-67
2023/06/06 12:32:25;;;;;;;6.93;4.87;;;27.00;39.20;;;;;;5071347;28;20654;-68
2023/06/06 12:35:01;;;;;;;4.63;4.23;;;27.20;38.70;;;;;;5071431;28;20471;-68
2023/06/06 12:37:40;;;;;;;5.90;4.93;;;28.00;39.30;;;;;;5071311;28;20434;-68
2023/06/06 12:40:15;;;;;;;5.03;4.63;;;29.20;36.20;;;;;;5071087;28;21116;-68
2023/06/06 12:42:51;;;;;;;7.93;5.07;;;29.10;35.50;;;;;;5070962;28;20445;-67
2023/06/06 12:45:19;;;;;;;4.60;4.20;;;28.60;35.10;;;;;;5071073;28;20431;-67
2023/06/06 12:47:49;;;;;;;5.60;4.90;;;28.80;34.80;;;;;;5070907;28;20438;-68
2023/06/06 12:50:19;;;;;;;4.83;4.47;;;28.50;36.00;;;;;;5070851;28;20542;-68
2023/06/06 12:52:47;;;;;;;5.80;5.20;;;28.90;37.40;;;;;;5070763;28;20516;-68
2023/06/06 12:55:15;;;;;;;5.37;4.90;;;29.70;35.10;;;;;;5070689;28;20510;-68
2023/06/06 12:57:43;;;;;;;5.90;5.30;;;30.30;34.60;;;;;;5070664;28;20439;-68
2023/06/06 13:00:13;;;;;;;5.83;5.27;;;28.30;36.70;;;;;;5070533;28;20899;-67